sensor_id;sensor_type;location;lat;lon;timestamp;pressure;altitude;pressure_sealevel;temperature;humidity
7105;BME280;3594;42.152;24.714;2023-06-04T00:01:06;61370.94;;;17.99;nan
7105;BME280;3594;42.152;24.714;2023-06-04T00:03:31;61344.81;;;18.13;nan
7105;BME280;3594;42.152;24.714;2023-06-04T00:05:57;61428.06;;;18.18;nan
7105;BME280;3594;42.152;24.714;2023-06-04T00:08:23;61375.44;;;18.20;nan
7105;BME280;3594;42.152;24.714;2023-06-04T00:10:48;61408.91;;;17.96;nan
7105;BME280;3594;42.152;24.714;2023-06-04T00:13:14;61390.09;;;18.21;nan
7105;BME280;3594;42.152;24.714;2023-06-04T00:15:39;61408.84;;;18.17;nan
7105;BME280;3594;42.152;24.714;2023-06-04T00:18:05;61389.06;;;17.83;nan
7105;BME280;3594;42.152;24.714;2023-06-04T00:20:30;61377.16;;;17.73;nan
7105;BME280;3594;42.152;24.714;2023-06-04T00:22:55;61435.66;;;18.11;nan
7105;BME280;3594;42.152;24.714;2023-06-04T00:25:21;61368.84;;;17.72;nan
7105;BME280;3594;42.152;24.714;2023-06-04T00:27:46;61377.72;;;18.05;nan
7105;BME280;3594;42.152;24.714;2023-06-04T00:30:12;61415.72;;;18.02;nan
7105;BME280;3594;42.152;24.714;2023-06-04T00:32:37;61410.63;;;17.98;nan
7105;BME280;3594;42.152;24.714;2023-06-04T00:35:03;61359.66;;;17.57;nan
7105;BME280;3594;42.152;24.714;2023-06-04T00:37:29;61358.28;;;17.70;nan
7105;BME280;3594;42.152;24.714;2023-06-04T00:39:55;61315.97;;;17.76;nan
7105;BME280;3594;42.152;24.714;2023-06-04T00:42:20;61338.91;;;17.94;nan
7105;BME280;3594;42.152;24.714;2023-06-04T00:44:46;61322.00;;;17.58;nan
7105;BME280;3594;42.152;24.714;2023-06-04T00:47:14;61305.47;;;17.85;nan
7105;BME280;3594;42.152;24.714;2023-06-04T00:49:39;61340.91;;;17.77;nan
7105;BME280;3594;42.152;24.714;2023-06-04T00:52:09;61305.72;;;17.71;nan
7105;BME280;3594;42.152;24.714;2023-06-04T00:54:36;61321.38;;;17.62;nan
7105;BME280;3594;42.152;24.714;2023-06-04T00:57:02;61429.69;;;17.55;nan
7105;BME280;3594;42.152;24.714;2023-06-04T00:59:29;61316.91;;;17.86;nan
7105;BME280;3594;42.152;24.714;2023-06-04T01:02:05;61300.53;;;17.87;nan
7105;BME280;3594;42.152;24.714;2023-06-04T01:05:05;61312.88;;;17.87;nan
7105;BME280;3594;42.152;24.714;2023-06-04T01:07:35;61305.00;;;17.80;nan
7105;BME280;3594;42.152;24.714;2023-06-04T01:10:01;61319.50;;;17.86;nan
7105;BME280;3594;42.152;24.714;2023-06-04T01:12:26;61338.81;;;17.82;nan
7105;BME280;3594;42.152;24.714;2023-06-04T01:14:52;61272.22;;;17.66;nan
7105;BME280;3594;42.152;24.714;2023-06-04T01:17:18;61322.91;;;17.89;nan
7105;BME280;3594;42.152;24.714;2023-06-04T01:22:42;61320.56;;;17.75;nan
7105;BME280;3594;42.152;24.714;2023-06-04T01:25:33;61325.31;;;17.98;nan
7105;BME280;3594;42.152;24.714;2023-06-04T01:27:59;61338.16;;;18.02;nan
7105;BME280;3594;42.152;24.714;2023-06-04T01:30:36;61294.13;;;17.91;nan
7105;BME280;3594;42.152;24.714;2023-06-04T01:33:08;61477.91;;;17.93;nan
7105;BME280;3594;42.152;24.714;2023-06-04T01:35:34;61330.25;;;17.79;nan
7105;BME280;3594;42.152;24.714;2023-06-04T01:37:59;61233.78;;;17.64;nan
7105;BME280;3594;42.152;24.714;2023-06-04T01:40:26;61254.41;;;17.37;nan
7105;BME280;3594;42.152;24.714;2023-06-04T01:42:52;61227.50;;;17.47;nan
7105;BME280;3594;42.152;24.714;2023-06-04T01:45:21;61303.34;;;17.57;nan
7105;BME280;3594;42.152;24.714;2023-06-04T01:47:46;61336.88;;;17.78;nan
7105;BME280;3594;42.152;24.714;2023-06-04T01:50:12;61361.25;;;17.95;nan
7105;BME280;3594;42.152;24.714;2023-06-04T01:52:39;61470.75;;;17.73;nan
7105;BME280;3594;42.152;24.714;2023-06-04T01:55:06;61335.00;;;17.53;nan
7105;BME280;3594;42.152;24.714;2023-06-04T01:57:36;61296.69;;;17.47;nan
7105;BME280;3594;42.152;24.714;2023-06-04T02:00:02;61534.63;;;17.65;nan
7105;BME280;3594;42.152;24.714;2023-06-04T02:02:29;61307.97;;;17.89;nan
7105;BME280;3594;42.152;24.714;2023-06-04T02:04:56;61356.66;;;17.96;nan
7105;BME280;3594;42.152;24.714;2023-06-04T02:07:21;61263.44;;;17.61;nan
7105;BME280;3594;42.152;24.714;2023-06-04T02:09:47;61295.44;;;17.83;nan
7105;BME280;3594;42.152;24.714;2023-06-04T02:12:13;61309.97;;;17.89;nan
7105;BME280;3594;42.152;24.714;2023-06-04T02:14:38;61257.59;;;17.49;nan
7105;BME280;3594;42.152;24.714;2023-06-04T02:17:05;61225.34;;;17.41;nan
7105;BME280;3594;42.152;24.714;2023-06-04T02:19:40;61206.91;;;17.59;nan
7105;BME280;3594;42.152;24.714;2023-06-04T02:22:13;61249.16;;;17.41;nan
7105;BME280;3594;42.152;24.714;2023-06-04T02:24:39;61173.97;;;17.27;nan
7105;BME280;3594;42.152;24.714;2023-06-04T02:27:08;61134.75;;;17.22;nan
7105;BME280;3594;42.152;24.714;2023-06-04T02:29:33;61121.84;;;17.50;nan
7105;BME280;3594;42.152;24.714;2023-06-04T02:31:59;61097.84;;;17.19;nan
7105;BME280;3594;42.152;24.714;2023-06-04T02:34:24;61093.22;;;17.47;nan
7105;BME280;3594;42.152;24.714;2023-06-04T02:36:50;61114.66;;;17.50;nan
7105;BME280;3594;42.152;24.714;2023-06-04T02:39:19;61121.75;;;17.27;nan
7105;BME280;3594;42.152;24.714;2023-06-04T02:41:45;61101.66;;;17.15;nan
7105;BME280;3594;42.152;24.714;2023-06-04T02:44:11;61144.91;;;17.31;nan
7105;BME280;3594;42.152;24.714;2023-06-04T02:46:37;61125.56;;;17.23;nan
7105;BME280;3594;42.152;24.714;2023-06-04T02:49:03;61180.94;;;17.52;nan
7105;BME280;3594;42.152;24.714;2023-06-04T02:51:28;61142.50;;;17.50;nan
7105;BME280;3594;42.152;24.714;2023-06-04T02:53:54;61119.69;;;17.43;nan
7105;BME280;3594;42.152;24.714;2023-06-04T02:56:20;61030.44;;;17.05;nan
7105;BME280;3594;42.152;24.714;2023-06-04T02:58:52;61056.63;;;17.14;nan
7105;BME280;3594;42.152;24.714;2023-06-04T03:01:25;61095.38;;;17.26;nan
7105;BME280;3594;42.152;24.714;2023-06-04T03:03:52;61270.94;;;17.42;nan
7105;BME280;3594;42.152;24.714;2023-06-04T03:06:18;61145.00;;;17.54;nan
7105;BME280;3594;42.152;24.714;2023-06-04T03:08:46;61138.13;;;17.25;nan
7105;BME280;3594;42.152;24.714;2023-06-04T03:11:12;61131.97;;;17.19;nan
7105;BME280;3594;42.152;24.714;2023-06-04T03:13:38;61140.88;;;17.32;nan
7105;BME280;3594;42.152;24.714;2023-06-04T03:16:04;61182.38;;;17.51;nan
7105;BME280;3594;42.152;24.714;2023-06-04T03:18:39;61139.00;;;17.67;nan
7105;BME280;3594;42.152;24.714;2023-06-04T03:21:05;61188.94;;;17.82;nan
7105;BME280;3594;42.152;24.714;2023-06-04T03:23:31;61302.41;;;17.80;nan
7105;BME280;3594;42.152;24.714;2023-06-04T03:25:56;61355.03;;;18.06;nan
7105;BME280;3594;42.152;24.714;2023-06-04T03:28:22;61172.84;;;17.82;nan
7105;BME280;3594;42.152;24.714;2023-06-04T03:30:47;61246.75;;;18.32;nan
7105;BME280;3594;42.152;24.714;2023-06-04T03:33:13;61297.91;;;18.31;nan
7105;BME280;3594;42.152;24.714;2023-06-04T03:35:40;61302.16;;;18.21;nan
7105;BME280;3594;42.152;24.714;2023-06-04T03:38:05;61342.06;;;18.22;nan
7105;BME280;3594;42.152;24.714;2023-06-04T03:40:31;61383.59;;;18.29;nan
7105;BME280;3594;42.152;24.714;2023-06-04T03:42:56;61570.81;;;18.39;nan
7105;BME280;3594;42.152;24.714;2023-06-04T03:45:22;61401.44;;;18.43;nan
7105;BME280;3594;42.152;24.714;2023-06-04T03:47:47;61342.34;;;18.52;nan
7105;BME280;3594;42.152;24.714;2023-06-04T03:50:12;61346.88;;;18.57;nan
7105;BME280;3594;42.152;24.714;2023-06-04T03:52:38;61359.59;;;18.54;nan
7105;BME280;3594;42.152;24.714;2023-06-04T03:55:04;61350.59;;;18.85;nan
7105;BME280;3594;42.152;24.714;2023-06-04T03:57:29;61409.41;;;19.06;nan
7105;BME280;3594;42.152;24.714;2023-06-04T03:59:56;61386.03;;;18.82;nan
7105;BME280;3594;42.152;24.714;2023-06-04T04:02:21;61333.84;;;19.01;nan
7105;BME280;3594;42.152;24.714;2023-06-04T04:04:46;61333.81;;;18.77;nan
7105;BME280;3594;42.152;24.714;2023-06-04T04:07:12;61275.63;;;18.81;nan
7105;BME280;3594;42.152;24.714;2023-06-04T04:09:37;61226.97;;;18.70;nan
7105;BME280;3594;42.152;24.714;2023-06-04T04:12:04;61223.75;;;18.85;nan
7105;BME280;3594;42.152;24.714;2023-06-04T04:14:29;61236.75;;;18.69;nan
7105;BME280;3594;42.152;24.714;2023-06-04T04:16:55;61229.97;;;18.91;nan
7105;BME280;3594;42.152;24.714;2023-06-04T04:19:20;61237.69;;;18.79;nan
7105;BME280;3594;42.152;24.714;2023-06-04T04:21:46;61230.72;;;18.82;nan
7105;BME280;3594;42.152;24.714;2023-06-04T04:24:24;61365.78;;;19.15;nan
7105;BME280;3594;42.152;24.714;2023-06-04T04:26:49;61327.88;;;18.86;nan
7105;BME280;3594;42.152;24.714;2023-06-04T04:29:17;61638.06;;;19.13;nan
7105;BME280;3594;42.152;24.714;2023-06-04T04:31:44;61376.75;;;19.00;nan
7105;BME280;3594;42.152;24.714;2023-06-04T04:34:13;61438.00;;;19.01;nan
7105;BME280;3594;42.152;24.714;2023-06-04T04:36:40;61432.97;;;19.08;nan
7105;BME280;3594;42.152;24.714;2023-06-04T04:39:05;61379.53;;;19.18;nan
7105;BME280;3594;42.152;24.714;2023-06-04T04:41:31;61448.84;;;19.34;nan
7105;BME280;3594;42.152;24.714;2023-06-04T04:44:05;61503.38;;;19.13;nan
7105;BME280;3594;42.152;24.714;2023-06-04T04:46:31;61362.31;;;19.28;nan
7105;BME280;3594;42.152;24.714;2023-06-04T04:48:56;61438.88;;;19.44;nan
7105;BME280;3594;42.152;24.714;2023-06-04T04:51:22;61443.75;;;19.46;nan
7105;BME280;3594;42.152;24.714;2023-06-04T04:53:47;61374.88;;;19.07;nan
7105;BME280;3594;42.152;24.714;2023-06-04T04:56:13;61385.91;;;19.03;nan
7105;BME280;3594;42.152;24.714;2023-06-04T04:58:39;61632.56;;;19.31;nan
7105;BME280;3594;42.152;24.714;2023-06-04T05:01:04;61452.31;;;19.49;nan
7105;BME280;3594;42.152;24.714;2023-06-04T05:03:30;61428.00;;;19.55;nan
7105;BME280;3594;42.152;24.714;2023-06-04T05:05:55;61464.09;;;19.64;nan
7105;BME280;3594;42.152;24.714;2023-06-04T05:08:21;61417.41;;;19.52;nan
7105;BME280;3594;42.152;24.714;2023-06-04T05:10:46;61388.31;;;19.24;nan
7105;BME280;3594;42.152;24.714;2023-06-04T05:13:12;61661.63;;;19.32;nan
7105;BME280;3594;42.152;24.714;2023-06-04T05:15:38;61524.31;;;19.48;nan
7105;BME280;3594;42.152;24.714;2023-06-04T05:18:05;61582.03;;;19.56;nan
7105;BME280;3594;42.152;24.714;2023-06-04T05:20:30;61587.84;;;19.68;nan
7105;BME280;3594;42.152;24.714;2023-06-04T05:22:56;61590.94;;;19.57;nan
7105;BME280;3594;42.152;24.714;2023-06-04T05:25:21;61596.28;;;19.64;nan
7105;BME280;3594;42.152;24.714;2023-06-04T05:27:47;61871.81;;;20.08;nan
7105;BME280;3594;42.152;24.714;2023-06-04T05:30:14;61686.16;;;20.25;nan
7105;BME280;3594;42.152;24.714;2023-06-04T05:32:40;61694.63;;;20.05;nan
7105;BME280;3594;42.152;24.714;2023-06-04T05:35:06;61903.31;;;20.22;nan
7105;BME280;3594;42.152;24.714;2023-06-04T05:37:33;61711.97;;;20.35;nan
7105;BME280;3594;42.152;24.714;2023-06-04T05:39:59;61717.81;;;20.31;nan
7105;BME280;3594;42.152;24.714;2023-06-04T05:42:25;61734.81;;;20.13;nan
7105;BME280;3594;42.152;24.714;2023-06-04T05:44:51;61740.41;;;20.55;nan
7105;BME280;3594;42.152;24.714;2023-06-04T05:47:17;61708.13;;;20.54;nan
7105;BME280;3594;42.152;24.714;2023-06-04T05:49:43;61770.84;;;20.64;nan
7105;BME280;3594;42.152;24.714;2023-06-04T05:52:09;61797.44;;;20.92;nan
7105;BME280;3594;42.152;24.714;2023-06-04T05:54:35;61776.78;;;20.99;nan
7105;BME280;3594;42.152;24.714;2023-06-04T05:57:02;61805.94;;;21.00;nan
7105;BME280;3594;42.152;24.714;2023-06-04T05:59:27;61822.84;;;20.76;nan
7105;BME280;3594;42.152;24.714;2023-06-04T06:01:53;61836.16;;;21.22;nan
7105;BME280;3594;42.152;24.714;2023-06-04T06:04:18;61851.28;;;21.17;nan
7105;BME280;3594;42.152;24.714;2023-06-04T06:06:44;61886.09;;;21.39;nan
7105;BME280;3594;42.152;24.714;2023-06-04T06:09:12;61880.97;;;21.34;nan
7105;BME280;3594;42.152;24.714;2023-06-04T06:11:38;61877.06;;;21.42;nan
7105;BME280;3594;42.152;24.714;2023-06-04T06:14:03;61883.72;;;21.41;nan
7105;BME280;3594;42.152;24.714;2023-06-04T06:16:28;61931.00;;;21.79;nan
7105;BME280;3594;42.152;24.714;2023-06-04T06:18:54;61980.59;;;21.86;nan
7105;BME280;3594;42.152;24.714;2023-06-04T06:21:19;61959.94;;;21.93;nan
7105;BME280;3594;42.152;24.714;2023-06-04T06:23:45;61996.78;;;22.19;nan
7105;BME280;3594;42.152;24.714;2023-06-04T06:26:10;61965.94;;;22.28;nan
7105;BME280;3594;42.152;24.714;2023-06-04T06:28:36;62006.47;;;22.27;nan
7105;BME280;3594;42.152;24.714;2023-06-04T06:31:01;61954.13;;;22.41;nan
7105;BME280;3594;42.152;24.714;2023-06-04T06:33:28;62036.31;;;22.40;nan
7105;BME280;3594;42.152;24.714;2023-06-04T06:35:54;62018.31;;;22.42;nan
7105;BME280;3594;42.152;24.714;2023-06-04T06:38:19;62075.19;;;22.65;nan
7105;BME280;3594;42.152;24.714;2023-06-04T06:40:45;62026.16;;;22.86;nan
7105;BME280;3594;42.152;24.714;2023-06-04T06:43:11;62071.19;;;22.94;nan
7105;BME280;3594;42.152;24.714;2023-06-04T06:45:37;62054.03;;;22.83;nan
7105;BME280;3594;42.152;24.714;2023-06-04T06:48:02;62072.41;;;22.90;nan
7105;BME280;3594;42.152;24.714;2023-06-04T06:50:29;61973.31;;;22.35;nan
7105;BME280;3594;42.152;24.714;2023-06-04T06:52:54;61995.63;;;22.34;nan
7105;BME280;3594;42.152;24.714;2023-06-04T06:55:20;61999.22;;;22.28;nan
7105;BME280;3594;42.152;24.714;2023-06-04T06:57:46;62013.28;;;22.17;nan
7105;BME280;3594;42.152;24.714;2023-06-04T07:00:11;61998.06;;;22.27;nan
7105;BME280;3594;42.152;24.714;2023-06-04T07:02:37;61937.09;;;21.77;nan
7105;BME280;3594;42.152;24.714;2023-06-04T07:05:02;61959.34;;;21.92;nan
7105;BME280;3594;42.152;24.714;2023-06-04T07:07:28;61978.72;;;22.26;nan
7105;BME280;3594;42.152;24.714;2023-06-04T07:09:53;62012.53;;;22.42;nan
7105;BME280;3594;42.152;24.714;2023-06-04T07:12:19;61945.22;;;21.91;nan
7105;BME280;3594;42.152;24.714;2023-06-04T07:14:44;61997.19;;;21.96;nan
7105;BME280;3594;42.152;24.714;2023-06-04T07:17:10;61948.00;;;21.82;nan
7105;BME280;3594;42.152;24.714;2023-06-04T07:19:36;61894.34;;;21.60;nan
7105;BME280;3594;42.152;24.714;2023-06-04T07:22:01;61940.19;;;21.98;nan
7105;BME280;3594;42.152;24.714;2023-06-04T07:24:26;61955.72;;;22.03;nan
7105;BME280;3594;42.152;24.714;2023-06-04T07:26:52;61911.00;;;21.82;nan
7105;BME280;3594;42.152;24.714;2023-06-04T07:29:17;61943.28;;;21.71;nan
7105;BME280;3594;42.152;24.714;2023-06-04T07:31:43;61983.19;;;22.18;nan
7105;BME280;3594;42.152;24.714;2023-06-04T07:34:08;61954.50;;;21.74;nan
7105;BME280;3594;42.152;24.714;2023-06-04T07:36:33;61954.91;;;21.84;nan
7105;BME280;3594;42.152;24.714;2023-06-04T07:38:59;61909.00;;;21.50;nan
7105;BME280;3594;42.152;24.714;2023-06-04T07:41:25;61809.91;;;21.36;nan
7105;BME280;3594;42.152;24.714;2023-06-04T07:43:51;61921.19;;;21.63;nan
7105;BME280;3594;42.152;24.714;2023-06-04T07:46:17;61946.13;;;21.74;nan
7105;BME280;3594;42.152;24.714;2023-06-04T07:48:44;61931.09;;;21.58;nan
7105;BME280;3594;42.152;24.714;2023-06-04T07:51:10;61931.25;;;21.65;nan
7105;BME280;3594;42.152;24.714;2023-06-04T07:53:36;61900.47;;;21.58;nan
7105;BME280;3594;42.152;24.714;2023-06-04T07:56:03;61913.97;;;21.64;nan
7105;BME280;3594;42.152;24.714;2023-06-04T07:58:29;61948.72;;;21.90;nan
7105;BME280;3594;42.152;24.714;2023-06-04T08:00:54;61983.84;;;21.98;nan
7105;BME280;3594;42.152;24.714;2023-06-04T08:03:20;62001.06;;;22.36;nan
7105;BME280;3594;42.152;24.714;2023-06-04T08:05:46;61955.06;;;21.91;nan
7105;BME280;3594;42.152;24.714;2023-06-04T08:08:11;61875.13;;;21.54;nan
7105;BME280;3594;42.152;24.714;2023-06-04T08:10:36;61896.91;;;21.48;nan
7105;BME280;3594;42.152;24.714;2023-06-04T08:13:04;61921.41;;;21.66;nan
7105;BME280;3594;42.152;24.714;2023-06-04T08:15:29;61888.25;;;21.62;nan
7105;BME280;3594;42.152;24.714;2023-06-04T08:17:54;61833.56;;;21.22;nan
7105;BME280;3594;42.152;24.714;2023-06-04T08:20:20;61841.38;;;21.22;nan
7105;BME280;3594;42.152;24.714;2023-06-04T08:22:45;61896.31;;;21.48;nan
7105;BME280;3594;42.152;24.714;2023-06-04T08:25:11;61864.91;;;21.29;nan
7105;BME280;3594;42.152;24.714;2023-06-04T08:27:36;61877.81;;;21.50;nan
7105;BME280;3594;42.152;24.714;2023-06-04T08:30:03;61856.66;;;21.52;nan
7105;BME280;3594;42.152;24.714;2023-06-04T08:32:28;61959.03;;;21.78;nan
7105;BME280;3594;42.152;24.714;2023-06-04T08:34:54;61928.00;;;21.85;nan
7105;BME280;3594;42.152;24.714;2023-06-04T08:37:19;61912.69;;;21.83;nan
7105;BME280;3594;42.152;24.714;2023-06-04T08:39:45;61888.97;;;21.69;nan
7105;BME280;3594;42.152;24.714;2023-06-04T08:42:18;62101.88;;;21.76;nan
7105;BME280;3594;42.152;24.714;2023-06-04T08:44:50;61917.94;;;21.67;nan
7105;BME280;3594;42.152;24.714;2023-06-04T08:47:18;61939.63;;;21.82;nan
7105;BME280;3594;42.152;24.714;2023-06-04T08:49:49;61992.63;;;22.24;nan
7105;BME280;3594;42.152;24.714;2023-06-04T08:52:15;62005.97;;;22.06;nan
7105;BME280;3594;42.152;24.714;2023-06-04T08:54:40;61965.97;;;21.96;nan
7105;BME280;3594;42.152;24.714;2023-06-04T08:57:06;61980.44;;;22.11;nan
7105;BME280;3594;42.152;24.714;2023-06-04T08:59:32;61935.81;;;21.69;nan
7105;BME280;3594;42.152;24.714;2023-06-04T09:01:58;62065.47;;;21.92;nan
7105;BME280;3594;42.152;24.714;2023-06-04T09:04:24;62006.22;;;22.09;nan
7105;BME280;3594;42.152;24.714;2023-06-04T09:06:52;62047.94;;;22.04;nan
7105;BME280;3594;42.152;24.714;2023-06-04T09:09:19;62028.50;;;22.40;nan
7105;BME280;3594;42.152;24.714;2023-06-04T09:11:52;62047.53;;;22.59;nan
7105;BME280;3594;42.152;24.714;2023-06-04T09:14:18;62069.31;;;22.53;nan
7105;BME280;3594;42.152;24.714;2023-06-04T09:16:45;61923.84;;;21.75;nan
7105;BME280;3594;42.152;24.714;2023-06-04T09:19:10;62012.53;;;22.42;nan
7105;BME280;3594;42.152;24.714;2023-06-04T09:21:59;62024.25;;;22.34;nan
7105;BME280;3594;42.152;24.714;2023-06-04T09:24:44;62078.22;;;22.75;nan
7105;BME280;3594;42.152;24.714;2023-06-04T09:27:21;61911.72;;;22.61;nan
7105;BME280;3594;42.152;24.714;2023-06-04T09:29:52;62037.19;;;22.38;nan
7105;BME280;3594;42.152;24.714;2023-06-04T09:32:22;62021.34;;;22.36;nan
7105;BME280;3594;42.152;24.714;2023-06-04T09:34:48;61969.31;;;22.03;nan
7105;BME280;3594;42.152;24.714;2023-06-04T09:37:16;61940.81;;;22.11;nan
7105;BME280;3594;42.152;24.714;2023-06-04T09:39:54;62119.66;;;22.88;nan
7105;BME280;3594;42.152;24.714;2023-06-04T09:42:21;62119.63;;;23.05;nan
7105;BME280;3594;42.152;24.714;2023-06-04T09:44:47;62097.81;;;22.95;nan
7105;BME280;3594;42.152;24.714;2023-06-04T09:47:12;62199.53;;;22.37;nan
7105;BME280;3594;42.152;24.714;2023-06-04T09:49:45;62059.72;;;22.88;nan
7105;BME280;3594;42.152;24.714;2023-06-04T09:52:11;62297.75;;;22.87;nan
7105;BME280;3594;42.152;24.714;2023-06-04T09:54:41;62118.75;;;23.06;nan
7105;BME280;3594;42.152;24.714;2023-06-04T09:57:17;62096.25;;;23.16;nan
7105;BME280;3594;42.152;24.714;2023-06-04T09:59:45;62146.25;;;23.38;nan
7105;BME280;3594;42.152;24.714;2023-06-04T10:02:18;62122.41;;;23.12;nan
7105;BME280;3594;42.152;24.714;2023-06-04T10:04:44;62083.94;;;23.08;nan
7105;BME280;3594;42.152;24.714;2023-06-04T10:07:13;62125.19;;;23.03;nan
7105;BME280;3594;42.152;24.714;2023-06-04T10:09:43;62168.50;;;23.41;nan
7105;BME280;3594;42.152;24.714;2023-06-04T10:12:13;62167.66;;;23.70;nan
7105;BME280;3594;42.152;24.714;2023-06-04T10:14:53;62194.88;;;23.88;nan
7105;BME280;3594;42.152;24.714;2023-06-04T10:17:22;62194.69;;;23.53;nan
7105;BME280;3594;42.152;24.714;2023-06-04T10:19:49;62170.63;;;23.36;nan
7105;BME280;3594;42.152;24.714;2023-06-04T10:22:22;62224.72;;;23.72;nan
7105;BME280;3594;42.152;24.714;2023-06-04T10:24:48;62169.31;;;23.60;nan
7105;BME280;3594;42.152;24.714;2023-06-04T10:27:16;62250.63;;;24.14;nan
7105;BME280;3594;42.152;24.714;2023-06-04T10:29:42;62148.59;;;23.67;nan
7105;BME280;3594;42.152;24.714;2023-06-04T10:32:08;62180.56;;;23.47;nan
7105;BME280;3594;42.152;24.714;2023-06-04T10:34:34;62137.47;;;23.27;nan
7105;BME280;3594;42.152;24.714;2023-06-04T10:37:00;62136.34;;;23.10;nan
7105;BME280;3594;42.152;24.714;2023-06-04T10:39:30;62131.34;;;23.13;nan
7105;BME280;3594;42.152;24.714;2023-06-04T10:42:06;62212.50;;;23.59;nan
7105;BME280;3594;42.152;24.714;2023-06-04T10:44:42;62162.22;;;23.52;nan
7105;BME280;3594;42.152;24.714;2023-06-04T10:47:18;62226.63;;;23.81;nan
7105;BME280;3594;42.152;24.714;2023-06-04T10:49:43;62194.09;;;23.52;nan
7105;BME280;3594;42.152;24.714;2023-06-04T10:52:12;62263.84;;;24.05;nan
7105;BME280;3594;42.152;24.714;2023-06-04T10:54:37;62236.56;;;23.76;nan
7105;BME280;3594;42.152;24.714;2023-06-04T10:57:13;62257.97;;;24.25;nan
7105;BME280;3594;42.152;24.714;2023-06-04T10:59:39;62233.28;;;23.96;nan
7105;BME280;3594;42.152;24.714;2023-06-04T11:02:05;62191.50;;;23.96;nan
7105;BME280;3594;42.152;24.714;2023-06-04T11:04:31;62253.66;;;24.07;nan
7105;BME280;3594;42.152;24.714;2023-06-04T11:07:06;62215.44;;;23.90;nan
7105;BME280;3594;42.152;24.714;2023-06-04T11:09:36;62166.06;;;23.48;nan
7105;BME280;3594;42.152;24.714;2023-06-04T11:12:04;62142.75;;;23.23;nan
7105;BME280;3594;42.152;24.714;2023-06-04T11:14:30;62181.38;;;23.66;nan
7105;BME280;3594;42.152;24.714;2023-06-04T11:16:56;62237.19;;;24.04;nan
7105;BME280;3594;42.152;24.714;2023-06-04T11:19:21;62315.91;;;24.46;nan
7105;BME280;3594;42.152;24.714;2023-06-04T11:21:47;62254.78;;;24.41;nan
7105;BME280;3594;42.152;24.714;2023-06-04T11:24:13;62281.78;;;24.39;nan
7105;BME280;3594;42.152;24.714;2023-06-04T11:26:39;62280.06;;;24.38;nan
7105;BME280;3594;42.152;24.714;2023-06-04T11:29:10;62389.84;;;24.01;nan
7105;BME280;3594;42.152;24.714;2023-06-04T11:31:47;62250.88;;;24.00;nan
7105;BME280;3594;42.152;24.714;2023-06-04T11:36:48;62256.03;;;24.05;nan
7105;BME280;3594;42.152;24.714;2023-06-04T11:39:15;62483.19;;;24.26;nan
7105;BME280;3594;42.152;24.714;2023-06-04T11:41:41;62248.38;;;23.96;nan
7105;BME280;3594;42.152;24.714;2023-06-04T11:44:07;62153.34;;;23.62;nan
7105;BME280;3594;42.152;24.714;2023-06-04T11:46:33;62166.47;;;23.58;nan
7105;BME280;3594;42.152;24.714;2023-06-04T11:48:59;62209.69;;;23.57;nan
7105;BME280;3594;42.152;24.714;2023-06-04T11:51:25;62195.00;;;23.67;nan
7105;BME280;3594;42.152;24.714;2023-06-04T11:53:51;62140.56;;;23.16;nan
7105;BME280;3594;42.152;24.714;2023-06-04T11:56:17;62134.72;;;23.04;nan
7105;BME280;3594;42.152;24.714;2023-06-04T11:58:43;62202.66;;;23.60;nan
7105;BME280;3594;42.152;24.714;2023-06-04T12:01:09;62401.72;;;23.67;nan
7105;BME280;3594;42.152;24.714;2023-06-04T12:03:39;62200.63;;;23.60;nan
7105;BME280;3594;42.152;24.714;2023-06-04T12:06:18;62234.25;;;24.06;nan
7105;BME280;3594;42.152;24.714;2023-06-04T12:08:50;62497.72;;;24.25;nan
7105;BME280;3594;42.152;24.714;2023-06-04T12:11:42;62273.16;;;24.36;nan
7105;BME280;3594;42.152;24.714;2023-06-04T12:14:07;62241.19;;;24.08;nan
7105;BME280;3594;42.152;24.714;2023-06-04T12:16:40;62311.53;;;23.85;nan
7105;BME280;3594;42.152;24.714;2023-06-04T12:19:12;62156.19;;;23.32;nan
7105;BME280;3594;42.152;24.714;2023-06-04T12:21:41;62206.78;;;23.87;nan
7105;BME280;3594;42.152;24.714;2023-06-04T12:24:14;62232.75;;;23.47;nan
7105;BME280;3594;42.152;24.714;2023-06-04T12:26:41;61990.06;;;22.96;nan
7105;BME280;3594;42.152;24.714;2023-06-04T12:29:14;62151.81;;;23.19;nan
7105;BME280;3594;42.152;24.714;2023-06-04T12:31:44;62194.03;;;23.57;nan
7105;BME280;3594;42.152;24.714;2023-06-04T12:34:12;62150.41;;;23.48;nan
7105;BME280;3594;42.152;24.714;2023-06-04T12:36:38;62159.47;;;23.28;nan
7105;BME280;3594;42.152;24.714;2023-06-04T12:39:04;62220.19;;;23.52;nan
7105;BME280;3594;42.152;24.714;2023-06-04T12:41:33;62143.31;;;23.40;nan
7105;BME280;3594;42.152;24.714;2023-06-04T12:43:59;62142.25;;;23.34;nan
7105;BME280;3594;42.152;24.714;2023-06-04T12:46:25;62154.06;;;23.54;nan
7105;BME280;3594;42.152;24.714;2023-06-04T12:48:51;62440.22;;;23.71;nan
7105;BME280;3594;42.152;24.714;2023-06-04T12:51:18;62196.50;;;23.94;nan
7105;BME280;3594;42.152;24.714;2023-06-04T12:53:44;62435.06;;;24.04;nan
7105;BME280;3594;42.152;24.714;2023-06-04T12:56:10;62291.63;;;24.71;nan
7105;BME280;3594;42.152;24.714;2023-06-04T12:58:36;62402.34;;;25.14;nan
7105;BME280;3594;42.152;24.714;2023-06-04T13:01:02;62462.88;;;25.72;nan
7105;BME280;3594;42.152;24.714;2023-06-04T13:03:29;62490.28;;;25.84;nan
7105;BME280;3594;42.152;24.714;2023-06-04T13:05:55;62364.13;;;25.07;nan
7105;BME280;3594;42.152;24.714;2023-06-04T13:08:21;62464.88;;;25.60;nan
7105;BME280;3594;42.152;24.714;2023-06-04T13:10:47;62537.63;;;26.03;nan
7105;BME280;3594;42.152;24.714;2023-06-04T13:13:14;62539.91;;;26.21;nan
7105;BME280;3594;42.152;24.714;2023-06-04T13:15:41;62494.41;;;25.95;nan
7105;BME280;3594;42.152;24.714;2023-06-04T13:18:07;62363.97;;;24.84;nan
7105;BME280;3594;42.152;24.714;2023-06-04T13:20:32;62342.09;;;24.74;nan
7105;BME280;3594;42.152;24.714;2023-06-04T13:22:58;62228.13;;;24.08;nan
7105;BME280;3594;42.152;24.714;2023-06-04T13:25:23;62527.22;;;24.48;nan
7105;BME280;3594;42.152;24.714;2023-06-04T13:27:49;62308.56;;;24.51;nan
7105;BME280;3594;42.152;24.714;2023-06-04T13:30:14;62290.63;;;24.33;nan
7105;BME280;3594;42.152;24.714;2023-06-04T13:32:40;62300.31;;;24.42;nan
7105;BME280;3594;42.152;24.714;2023-06-04T13:35:05;62294.28;;;24.55;nan
7105;BME280;3594;42.152;24.714;2023-06-04T13:37:31;62352.53;;;24.90;nan